sensor_id;sensor_type;location;lat;lon;timestamp;P1;durP1;ratioP1;P2;durP2;ratioP2
20629;SDS011;17386;43.846;25.950;2024-02-23T00:00:27;24.08;;;10.85;;
20629;SDS011;17386;43.846;25.950;2024-02-23T00:02:52;26.55;;;10.85;;
20629;SDS011;17386;43.846;25.950;2024-02-23T00:05:19;20.90;;;9.07;;
20629;SDS011;17386;43.846;25.950;2024-02-23T00:07:44;16.70;;;7.97;;
20629;SDS011;17386;43.846;25.950;2024-02-23T00:10:10;19.98;;;8.63;;
20629;SDS011;17386;43.846;25.950;2024-02-23T00:12:35;16.25;;;7.70;;
20629;SDS011;17386;43.846;25.950;2024-02-23T00:15:01;16.20;;;7.97;;
20629;SDS011;17386;43.846;25.950;2024-02-23T00:17:26;17.83;;;7.20;;
20629;SDS011;17386;43.846;25.950;2024-02-23T00:19:52;17.08;;;7.28;;
20629;SDS011;17386;43.846;25.950;2024-02-23T00:22:18;13.85;;;7.30;;
20629;SDS011;17386;43.846;25.950;2024-02-23T00:24:43;16.85;;;6.45;;
20629;SDS011;17386;43.846;25.950;2024-02-23T00:27:09;16.73;;;7.70;;
20629;SDS011;17386;43.846;25.950;2024-02-23T00:29:35;10.80;;;6.32;;
20629;SDS011;17386;43.846;25.950;2024-02-23T00:32:01;13.98;;;7.43;;
20629;SDS011;17386;43.846;25.950;2024-02-23T00:34:27;13.35;;;6.05;;
20629;SDS011;17386;43.846;25.950;2024-02-23T00:36:52;14.18;;;7.20;;
20629;SDS011;17386;43.846;25.950;2024-02-23T00:39:17;14.90;;;6.15;;
20629;SDS011;17386;43.846;25.950;2024-02-23T00:41:43;13.45;;;6.43;;
20629;SDS011;17386;43.846;25.950;2024-02-23T00:44:08;13.23;;;6.55;;
20629;SDS011;17386;43.846;25.950;2024-02-23T00:46:34;14.32;;;6.38;;
20629;SDS011;17386;43.846;25.950;2024-02-23T00:48:59;14.93;;;6.70;;
20629;SDS011;17386;43.846;25.950;2024-02-23T00:51:25;16.55;;;6.18;;
20629;SDS011;17386;43.846;25.950;2024-02-23T00:53:50;13.27;;;6.38;;
20629;SDS011;17386;43.846;25.950;2024-02-23T00:56:16;11.20;;;5.82;;
20629;SDS011;17386;43.846;25.950;2024-02-23T00:58:41;13.65;;;7.18;;
20629;SDS011;17386;43.846;25.950;2024-02-23T01:01:07;13.82;;;6.55;;
20629;SDS011;17386;43.846;25.950;2024-02-23T01:03:33;14.98;;;7.05;;
20629;SDS011;17386;43.846;25.950;2024-02-23T01:05:58;13.68;;;6.22;;
20629;SDS011;17386;43.846;25.950;2024-02-23T01:08:24;12.57;;;6.47;;
20629;SDS011;17386;43.846;25.950;2024-02-23T01:10:49;12.10;;;6.18;;
20629;SDS011;17386;43.846;25.950;2024-02-23T01:13:15;12.75;;;6.38;;
20629;SDS011;17386;43.846;25.950;2024-02-23T01:15:41;14.07;;;6.95;;
20629;SDS011;17386;43.846;25.950;2024-02-23T01:18:07;14.52;;;6.55;;
20629;SDS011;17386;43.846;25.950;2024-02-23T01:20:33;12.93;;;5.95;;
20629;SDS011;17386;43.846;25.950;2024-02-23T01:22:58;14.93;;;6.45;;
20629;SDS011;17386;43.846;25.950;2024-02-23T01:25:24;16.23;;;6.70;;
20629;SDS011;17386;43.846;25.950;2024-02-23T01:27:49;13.80;;;6.80;;
20629;SDS011;17386;43.846;25.950;2024-02-23T01:30:15;17.75;;;7.35;;
20629;SDS011;17386;43.846;25.950;2024-02-23T01:32:40;14.50;;;6.75;;
20629;SDS011;17386;43.846;25.950;2024-02-23T01:35:06;13.38;;;6.50;;
20629;SDS011;17386;43.846;25.950;2024-02-23T01:37:33;13.23;;;6.80;;
20629;SDS011;17386;43.846;25.950;2024-02-23T01:39:59;13.77;;;5.82;;
20629;SDS011;17386;43.846;25.950;2024-02-23T01:42:25;13.02;;;6.40;;
20629;SDS011;17386;43.846;25.950;2024-02-23T01:44:51;13.13;;;6.65;;
20629;SDS011;17386;43.846;25.950;2024-02-23T01:47:21;12.80;;;5.90;;
20629;SDS011;17386;43.846;25.950;2024-02-23T01:49:48;18.35;;;6.43;;
20629;SDS011;17386;43.846;25.950;2024-02-23T01:52:15;15.25;;;6.28;;
20629;SDS011;17386;43.846;25.950;2024-02-23T01:54:40;13.40;;;6.18;;
20629;SDS011;17386;43.846;25.950;2024-02-23T01:57:06;11.88;;;5.85;;
20629;SDS011;17386;43.846;25.950;2024-02-23T01:59:34;12.80;;;6.18;;
20629;SDS011;17386;43.846;25.950;2024-02-23T02:02:02;13.65;;;5.53;;
20629;SDS011;17386;43.846;25.950;2024-02-23T02:04:28;12.25;;;5.75;;
20629;SDS011;17386;43.846;25.950;2024-02-23T02:06:53;12.50;;;6.47;;
20629;SDS011;17386;43.846;25.950;2024-02-23T02:09:20;15.05;;;6.80;;
20629;SDS011;17386;43.846;25.950;2024-02-23T02:11:46;13.20;;;6.22;;
20629;SDS011;17386;43.846;25.950;2024-02-23T02:14:15;16.33;;;6.50;;
20629;SDS011;17386;43.846;25.950;2024-02-23T02:16:40;13.15;;;6.30;;
20629;SDS011;17386;43.846;25.950;2024-02-23T02:19:06;11.15;;;6.25;;
20629;SDS011;17386;43.846;25.950;2024-02-23T02:21:32;13.25;;;6.20;;
20629;SDS011;17386;43.846;25.950;2024-02-23T02:23:58;10.60;;;5.93;;
20629;SDS011;17386;43.846;25.950;2024-02-23T02:26:24;13.52;;;6.18;;
20629;SDS011;17386;43.846;25.950;2024-02-23T02:28:49;13.15;;;6.38;;
20629;SDS011;17386;43.846;25.950;2024-02-23T02:31:14;12.80;;;6.07;;
20629;SDS011;17386;43.846;25.950;2024-02-23T02:33:40;12.95;;;6.38;;
20629;SDS011;17386;43.846;25.950;2024-02-23T02:36:06;12.65;;;5.88;;
20629;SDS011;17386;43.846;25.950;2024-02-23T02:38:32;11.82;;;6.25;;
20629;SDS011;17386;43.846;25.950;2024-02-23T02:41:00;10.55;;;5.70;;
20629;SDS011;17386;43.846;25.950;2024-02-23T02:43:26;10.82;;;5.43;;
20629;SDS011;17386;43.846;25.950;2024-02-23T02:45:52;12.13;;;6.13;;
20629;SDS011;17386;43.846;25.950;2024-02-23T02:48:17;11.73;;;5.80;;
20629;SDS011;17386;43.846;25.950;2024-02-23T02:50:42;10.55;;;5.80;;
20629;SDS011;17386;43.846;25.950;2024-02-23T02:53:08;11.63;;;5.40;;
20629;SDS011;17386;43.846;25.950;2024-02-23T02:55:35;11.45;;;5.10;;
20629;SDS011;17386;43.846;25.950;2024-02-23T02:58:01;12.88;;;5.32;;
20629;SDS011;17386;43.846;25.950;2024-02-23T03:00:26;12.05;;;5.53;;
20629;SDS011;17386;43.846;25.950;2024-02-23T03:02:52;13.75;;;5.78;;
20629;SDS011;17386;43.846;25.950;2024-02-23T03:05:18;11.85;;;5.43;;
20629;SDS011;17386;43.846;25.950;2024-02-23T03:07:43;12.55;;;6.63;;
20629;SDS011;17386;43.846;25.950;2024-02-23T03:10:09;10.48;;;5.38;;
20629;SDS011;17386;43.846;25.950;2024-02-23T03:12:34;15.57;;;6.65;;
20629;SDS011;17386;43.846;25.950;2024-02-23T03:14:59;11.02;;;5.38;;
20629;SDS011;17386;43.846;25.950;2024-02-23T03:17:27;10.70;;;5.25;;
20629;SDS011;17386;43.846;25.950;2024-02-23T03:19:52;11.77;;;5.82;;
20629;SDS011;17386;43.846;25.950;2024-02-23T03:22:17;10.20;;;5.07;;
20629;SDS011;17386;43.846;25.950;2024-02-23T03:24:43;10.75;;;5.20;;
20629;SDS011;17386;43.846;25.950;2024-02-23T03:27:08;10.82;;;5.18;;
20629;SDS011;17386;43.846;25.950;2024-02-23T03:29:34;10.48;;;5.35;;
20629;SDS011;17386;43.846;25.950;2024-02-23T03:31:59;11.90;;;5.90;;
20629;SDS011;17386;43.846;25.950;2024-02-23T03:34:26;9.57;;;5.35;;
20629;SDS011;17386;43.846;25.950;2024-02-23T03:36:51;11.18;;;5.55;;
20629;SDS011;17386;43.846;25.950;2024-02-23T03:39:17;11.07;;;5.28;;
20629;SDS011;17386;43.846;25.950;2024-02-23T03:41:42;10.85;;;5.53;;
20629;SDS011;17386;43.846;25.950;2024-02-23T03:44:08;11.77;;;5.95;;
20629;SDS011;17386;43.846;25.950;2024-02-23T03:46:33;13.20;;;6.00;;
20629;SDS011;17386;43.846;25.950;2024-02-23T03:48:59;11.60;;;5.63;;
20629;SDS011;17386;43.846;25.950;2024-02-23T03:51:25;11.80;;;5.50;;
20629;SDS011;17386;43.846;25.950;2024-02-23T03:53:50;11.48;;;5.60;;
20629;SDS011;17386;43.846;25.950;2024-02-23T03:56:16;10.63;;;5.45;;
20629;SDS011;17386;43.846;25.950;2024-02-23T03:58:41;11.80;;;5.80;;
20629;SDS011;17386;43.846;25.950;2024-02-23T04:01:07;10.32;;;5.68;;
20629;SDS011;17386;43.846;25.950;2024-02-23T04:03:32;12.18;;;6.15;;
20629;SDS011;17386;43.846;25.950;2024-02-23T04:05:57;11.85;;;5.78;;
20629;SDS011;17386;43.846;25.950;2024-02-23T04:08:23;11.50;;;6.03;;
20629;SDS011;17386;43.846;25.950;2024-02-23T04:10:48;11.77;;;5.90;;
20629;SDS011;17386;43.846;25.950;2024-02-23T04:13:13;12.48;;;6.13;;
20629;SDS011;17386;43.846;25.950;2024-02-23T04:15:39;11.10;;;6.05;;
20629;SDS011;17386;43.846;25.950;2024-02-23T04:18:05;15.02;;;6.45;;
20629;SDS011;17386;43.846;25.950;2024-02-23T04:20:31;11.82;;;5.72;;
20629;SDS011;17386;43.846;25.950;2024-02-23T04:22:57;11.98;;;6.13;;
20629;SDS011;17386;43.846;25.950;2024-02-23T04:25:23;13.38;;;6.18;;
20629;SDS011;17386;43.846;25.950;2024-02-23T04:27:48;9.85;;;5.38;;
20629;SDS011;17386;43.846;25.950;2024-02-23T04:30:14;11.35;;;5.80;;
20629;SDS011;17386;43.846;25.950;2024-02-23T04:32:39;11.63;;;5.65;;
20629;SDS011;17386;43.846;25.950;2024-02-23T04:35:05;11.57;;;5.80;;
20629;SDS011;17386;43.846;25.950;2024-02-23T04:37:31;10.82;;;5.50;;
20629;SDS011;17386;43.846;25.950;2024-02-23T04:39:56;12.30;;;5.47;;
20629;SDS011;17386;43.846;25.950;2024-02-23T04:42:21;9.77;;;5.50;;
20629;SDS011;17386;43.846;25.950;2024-02-23T04:44:47;10.73;;;5.28;;
20629;SDS011;17386;43.846;25.950;2024-02-23T04:47:14;11.43;;;5.57;;
20629;SDS011;17386;43.846;25.950;2024-02-23T04:49:39;14.75;;;6.45;;
20629;SDS011;17386;43.846;25.950;2024-02-23T04:52:05;10.02;;;5.45;;
20629;SDS011;17386;43.846;25.950;2024-02-23T04:54:31;11.60;;;6.00;;
20629;SDS011;17386;43.846;25.950;2024-02-23T04:56:56;10.90;;;5.57;;
20629;SDS011;17386;43.846;25.950;2024-02-23T04:59:22;16.95;;;6.95;;
20629;SDS011;17386;43.846;25.950;2024-02-23T05:01:47;15.82;;;7.80;;
20629;SDS011;17386;43.846;25.950;2024-02-23T05:04:13;13.75;;;7.20;;
20629;SDS011;17386;43.846;25.950;2024-02-23T05:06:38;14.43;;;7.03;;
20629;SDS011;17386;43.846;25.950;2024-02-23T05:09:03;11.80;;;6.57;;
20629;SDS011;17386;43.846;25.950;2024-02-23T05:11:30;13.65;;;7.20;;
20629;SDS011;17386;43.846;25.950;2024-02-23T05:13:56;17.35;;;6.93;;
20629;SDS011;17386;43.846;25.950;2024-02-23T05:16:21;16.85;;;6.55;;
20629;SDS011;17386;43.846;25.950;2024-02-23T05:18:46;12.98;;;5.78;;
20629;SDS011;17386;43.846;25.950;2024-02-23T05:21:12;14.82;;;6.18;;
20629;SDS011;17386;43.846;25.950;2024-02-23T05:23:40;23.20;;;6.70;;
20629;SDS011;17386;43.846;25.950;2024-02-23T05:26:06;12.63;;;6.25;;
20629;SDS011;17386;43.846;25.950;2024-02-23T05:28:32;14.10;;;6.57;;
20629;SDS011;17386;43.846;25.950;2024-02-23T05:30:58;15.20;;;7.07;;
20629;SDS011;17386;43.846;25.950;2024-02-23T05:33:23;21.60;;;7.00;;
20629;SDS011;17386;43.846;25.950;2024-02-23T05:35:49;17.70;;;6.72;;
20629;SDS011;17386;43.846;25.950;2024-02-23T05:38:15;20.35;;;7.68;;
20629;SDS011;17386;43.846;25.950;2024-02-23T05:40:40;16.98;;;6.50;;
20629;SDS011;17386;43.846;25.950;2024-02-23T05:43:06;17.98;;;7.25;;
20629;SDS011;17386;43.846;25.950;2024-02-23T05:45:31;22.50;;;7.72;;
20629;SDS011;17386;43.846;25.950;2024-02-23T05:47:57;16.08;;;7.43;;
20629;SDS011;17386;43.846;25.950;2024-02-23T05:50:23;11.77;;;6.10;;
20629;SDS011;17386;43.846;25.950;2024-02-23T05:52:48;17.20;;;7.95;;
20629;SDS011;17386;43.846;25.950;2024-02-23T05:55:13;13.40;;;6.60;;
20629;SDS011;17386;43.846;25.950;2024-02-23T05:57:39;16.75;;;7.07;;
20629;SDS011;17386;43.846;25.950;2024-02-23T06:00:05;15.95;;;7.45;;
20629;SDS011;17386;43.846;25.950;2024-02-23T06:02:32;17.20;;;7.60;;
20629;SDS011;17386;43.846;25.950;2024-02-23T06:04:58;17.60;;;7.80;;
20629;SDS011;17386;43.846;25.950;2024-02-23T06:07:23;20.60;;;7.65;;
20629;SDS011;17386;43.846;25.950;2024-02-23T06:09:54;17.02;;;7.40;;
20629;SDS011;17386;43.846;25.950;2024-02-23T06:12:23;16.30;;;7.00;;
20629;SDS011;17386;43.846;25.950;2024-02-23T06:14:50;16.00;;;7.15;;
20629;SDS011;17386;43.846;25.950;2024-02-23T06:17:16;13.68;;;6.70;;
20629;SDS011;17386;43.846;25.950;2024-02-23T06:19:41;17.08;;;6.93;;
20629;SDS011;17386;43.846;25.950;2024-02-23T06:22:07;13.98;;;6.57;;
20629;SDS011;17386;43.846;25.950;2024-02-23T06:24:35;12.85;;;7.40;;
20629;SDS011;17386;43.846;25.950;2024-02-23T06:27:00;17.33;;;7.43;;
20629;SDS011;17386;43.846;25.950;2024-02-23T06:29:28;14.27;;;6.80;;
20629;SDS011;17386;43.846;25.950;2024-02-23T06:31:54;21.42;;;8.55;;
20629;SDS011;17386;43.846;25.950;2024-02-23T06:34:19;19.60;;;8.25;;
20629;SDS011;17386;43.846;25.950;2024-02-23T06:36:45;15.52;;;7.75;;
20629;SDS011;17386;43.846;25.950;2024-02-23T06:39:10;17.73;;;8.75;;
20629;SDS011;17386;43.846;25.950;2024-02-23T06:41:36;16.10;;;8.32;;
20629;SDS011;17386;43.846;25.950;2024-02-23T06:44:03;17.83;;;8.75;;
20629;SDS011;17386;43.846;25.950;2024-02-23T06:46:29;16.40;;;7.82;;
20629;SDS011;17386;43.846;25.950;2024-02-23T06:48:55;18.15;;;7.72;;
20629;SDS011;17386;43.846;25.950;2024-02-23T06:51:20;20.13;;;7.85;;
20629;SDS011;17386;43.846;25.950;2024-02-23T06:53:46;22.00;;;8.10;;
20629;SDS011;17386;43.846;25.950;2024-02-23T06:56:12;20.00;;;8.07;;
20629;SDS011;17386;43.846;25.950;2024-02-23T06:58:37;14.15;;;7.55;;
20629;SDS011;17386;43.846;25.950;2024-02-23T07:01:04;15.20;;;7.32;;
20629;SDS011;17386;43.846;25.950;2024-02-23T07:03:30;15.48;;;7.38;;
20629;SDS011;17386;43.846;25.950;2024-02-23T07:05:56;19.63;;;8.52;;
20629;SDS011;17386;43.846;25.950;2024-02-23T07:08:22;10.85;;;5.90;;
20629;SDS011;17386;43.846;25.950;2024-02-23T07:10:47;13.23;;;6.57;;
20629;SDS011;17386;43.846;25.950;2024-02-23T07:13:16;14.60;;;6.38;;
20629;SDS011;17386;43.846;25.950;2024-02-23T07:15:42;13.50;;;6.22;;
20629;SDS011;17386;43.846;25.950;2024-02-23T07:18:08;12.40;;;5.95;;
20629;SDS011;17386;43.846;25.950;2024-02-23T07:20:35;15.75;;;6.88;;
20629;SDS011;17386;43.846;25.950;2024-02-23T07:23:01;11.55;;;6.05;;
20629;SDS011;17386;43.846;25.950;2024-02-23T07:25:26;13.40;;;5.90;;
20629;SDS011;17386;43.846;25.950;2024-02-23T07:27:52;13.15;;;5.90;;
20629;SDS011;17386;43.846;25.950;2024-02-23T07:30:18;9.18;;;5.22;;
20629;SDS011;17386;43.846;25.950;2024-02-23T07:32:43;19.58;;;7.18;;
20629;SDS011;17386;43.846;25.950;2024-02-23T07:35:10;13.68;;;6.68;;
20629;SDS011;17386;43.846;25.950;2024-02-23T07:37:38;15.70;;;6.82;;
20629;SDS011;17386;43.846;25.950;2024-02-23T07:40:04;16.92;;;7.50;;
20629;SDS011;17386;43.846;25.950;2024-02-23T07:42:31;12.02;;;5.88;;
20629;SDS011;17386;43.846;25.950;2024-02-23T07:44:57;20.73;;;8.27;;
20629;SDS011;17386;43.846;25.950;2024-02-23T07:47:22;16.60;;;7.82;;
20629;SDS011;17386;43.846;25.950;2024-02-23T07:49:48;24.90;;;10.95;;
20629;SDS011;17386;43.846;25.950;2024-02-23T07:52:13;14.18;;;5.85;;
20629;SDS011;17386;43.846;25.950;2024-02-23T07:54:39;11.18;;;5.57;;
20629;SDS011;17386;43.846;25.950;2024-02-23T07:57:04;17.17;;;5.95;;
20629;SDS011;17386;43.846;25.950;2024-02-23T07:59:30;9.18;;;4.63;;
20629;SDS011;17386;43.846;25.950;2024-02-23T08:01:56;10.25;;;4.90;;
20629;SDS011;17386;43.846;25.950;2024-02-23T08:04:21;9.95;;;4.60;;
20629;SDS011;17386;43.846;25.950;2024-02-23T08:06:47;11.23;;;5.90;;
20629;SDS011;17386;43.846;25.950;2024-02-23T08:09:13;11.80;;;4.50;;
20629;SDS011;17386;43.846;25.950;2024-02-23T08:11:39;9.10;;;5.45;;
20629;SDS011;17386;43.846;25.950;2024-02-23T08:14:04;9.73;;;4.95;;
20629;SDS011;17386;43.846;25.950;2024-02-23T08:16:30;7.45;;;4.43;;
20629;SDS011;17386;43.846;25.950;2024-02-23T08:18:55;7.25;;;4.18;;
20629;SDS011;17386;43.846;25.950;2024-02-23T08:21:20;8.57;;;4.30;;
20629;SDS011;17386;43.846;25.950;2024-02-23T08:23:46;12.75;;;4.43;;
20629;SDS011;17386;43.846;25.950;2024-02-23T08:26:11;7.30;;;4.00;;
20629;SDS011;17386;43.846;25.950;2024-02-23T08:28:37;8.00;;;4.07;;
20629;SDS011;17386;43.846;25.950;2024-02-23T08:31:03;8.38;;;4.22;;
20629;SDS011;17386;43.846;25.950;2024-02-23T08:33:28;7.70;;;4.32;;
20629;SDS011;17386;43.846;25.950;2024-02-23T08:35:54;7.97;;;4.30;;
20629;SDS011;17386;43.846;25.950;2024-02-23T08:38:20;9.65;;;4.40;;
20629;SDS011;17386;43.846;25.950;2024-02-23T08:40:45;10.48;;;4.80;;
20629;SDS011;17386;43.846;25.950;2024-02-23T08:43:11;9.20;;;4.30;;
20629;SDS011;17386;43.846;25.950;2024-02-23T08:45:36;7.38;;;4.28;;
20629;SDS011;17386;43.846;25.950;2024-02-23T08:48:02;10.93;;;4.80;;
20629;SDS011;17386;43.846;25.950;2024-02-23T08:50:31;9.02;;;4.53;;
20629;SDS011;17386;43.846;25.950;2024-02-23T08:52:57;10.32;;;4.70;;
20629;SDS011;17386;43.846;25.950;2024-02-23T08:55:22;9.15;;;5.30;;
20629;SDS011;17386;43.846;25.950;2024-02-23T08:57:48;12.35;;;5.15;;
20629;SDS011;17386;43.846;25.950;2024-02-23T09:00:14;12.45;;;5.78;;
20629;SDS011;17386;43.846;25.950;2024-02-23T09:02:40;9.23;;;5.20;;
20629;SDS011;17386;43.846;25.950;2024-02-23T09:05:07;11.00;;;5.28;;
20629;SDS011;17386;43.846;25.950;2024-02-23T09:07:33;10.18;;;4.97;;
20629;SDS011;17386;43.846;25.950;2024-02-23T09:09:59;11.05;;;5.07;;
20629;SDS011;17386;43.846;25.950;2024-02-23T09:12:24;12.77;;;5.60;;
20629;SDS011;17386;43.846;25.950;2024-02-23T09:14:49;14.45;;;7.22;;
20629;SDS011;17386;43.846;25.950;2024-02-23T09:17:15;10.93;;;5.80;;
20629;SDS011;17386;43.846;25.950;2024-02-23T09:19:40;15.48;;;6.20;;
20629;SDS011;17386;43.846;25.950;2024-02-23T09:22:06;16.83;;;6.97;;
20629;SDS011;17386;43.846;25.950;2024-02-23T09:24:32;10.18;;;4.82;;
20629;SDS011;17386;43.846;25.950;2024-02-23T09:26:57;7.95;;;4.32;;
20629;SDS011;17386;43.846;25.950;2024-02-23T09:29:23;10.50;;;4.80;;
20629;SDS011;17386;43.846;25.950;2024-02-23T09:31:48;10.20;;;4.78;;
20629;SDS011;17386;43.846;25.950;2024-02-23T09:34:14;7.32;;;4.25;;
20629;SDS011;17386;43.846;25.950;2024-02-23T09:36:39;11.65;;;4.75;;
20629;SDS011;17386;43.846;25.950;2024-02-23T09:39:04;10.38;;;5.38;;
20629;SDS011;17386;43.846;25.950;2024-02-23T09:41:30;9.18;;;4.57;;
20629;SDS011;17386;43.846;25.950;2024-02-23T09:43:59;8.95;;;4.68;;
20629;SDS011;17386;43.846;25.950;2024-02-23T09:46:26;9.48;;;4.80;;
20629;SDS011;17386;43.846;25.950;2024-02-23T09:48:51;11.13;;;4.75;;
20629;SDS011;17386;43.846;25.950;2024-02-23T09:51:18;10.23;;;4.28;;
20629;SDS011;17386;43.846;25.950;2024-02-23T09:53:45;9.50;;;5.00;;
20629;SDS011;17386;43.846;25.950;2024-02-23T09:56:14;7.88;;;4.57;;
20629;SDS011;17386;43.846;25.950;2024-02-23T09:58:55;9.18;;;5.05;;
20629;SDS011;17386;43.846;25.950;2024-02-23T10:01:28;10.48;;;5.35;;
20629;SDS011;17386;43.846;25.950;2024-02-23T10:04:02;9.98;;;5.20;;
20629;SDS011;17386;43.846;25.950;2024-02-23T10:06:29;8.38;;;4.65;;
20629;SDS011;17386;43.846;25.950;2024-02-23T10:08:55;9.63;;;4.18;;
20629;SDS011;17386;43.846;25.950;2024-02-23T10:11:21;7.75;;;4.25;;
20629;SDS011;17386;43.846;25.950;2024-02-23T10:13:48;8.38;;;4.10;;
20629;SDS011;17386;43.846;25.950;2024-02-23T10:16:20;6.90;;;3.97;;
20629;SDS011;17386;43.846;25.950;2024-02-23T10:18:50;9.48;;;4.45;;
20629;SDS011;17386;43.846;25.950;2024-02-23T10:21:15;7.75;;;4.22;;
20629;SDS011;17386;43.846;25.950;2024-02-23T10:23:42;8.63;;;4.57;;
20629;SDS011;17386;43.846;25.950;2024-02-23T10:26:09;10.40;;;4.75;;
20629;SDS011;17386;43.846;25.950;2024-02-23T10:28:35;8.73;;;4.82;;
20629;SDS011;17386;43.846;25.950;2024-02-23T10:31:03;8.30;;;4.68;;
20629;SDS011;17386;43.846;25.950;2024-02-23T10:33:30;6.38;;;4.00;;
20629;SDS011;17386;43.846;25.950;2024-02-23T10:35:56;9.77;;;4.55;;
20629;SDS011;17386;43.846;25.950;2024-02-23T10:38:23;9.10;;;4.28;;
20629;SDS011;17386;43.846;25.950;2024-02-23T10:40:50;12.02;;;5.97;;
20629;SDS011;17386;43.846;25.950;2024-02-23T10:43:17;7.35;;;4.18;;
20629;SDS011;17386;43.846;25.950;2024-02-23T10:45:46;6.60;;;3.88;;
20629;SDS011;17386;43.846;25.950;2024-02-23T10:48:11;10.32;;;4.93;;
20629;SDS011;17386;43.846;25.950;2024-02-23T10:50:39;8.05;;;3.78;;
20629;SDS011;17386;43.846;25.950;2024-02-23T10:53:06;7.97;;;4.40;;
20629;SDS011;17386;43.846;25.950;2024-02-23T10:55:33;8.70;;;3.67;;
20629;SDS011;17386;43.846;25.950;2024-02-23T10:58:02;13.25;;;5.22;;
20629;SDS011;17386;43.846;25.950;2024-02-23T11:00:28;11.98;;;5.05;;
20629;SDS011;17386;43.846;25.950;2024-02-23T11:02:54;7.50;;;4.20;;
20629;SDS011;17386;43.846;25.950;2024-02-23T11:05:21;9.13;;;3.88;;
20629;SDS011;17386;43.846;25.950;2024-02-23T11:07:48;6.05;;;3.17;;
20629;SDS011;17386;43.846;25.950;2024-02-23T11:10:17;6.70;;;3.45;;
20629;SDS011;17386;43.846;25.950;2024-02-23T11:12:43;9.65;;;4.60;;
20629;SDS011;17386;43.846;25.950;2024-02-23T11:15:09;16.85;;;4.93;;
20629;SDS011;17386;43.846;25.950;2024-02-23T11:17:50;8.20;;;3.92;;
20629;SDS011;17386;43.846;25.950;2024-02-23T11:20:16;6.75;;;3.25;;
20629;SDS011;17386;43.846;25.950;2024-02-23T11:22:41;9.05;;;3.65;;
20629;SDS011;17386;43.846;25.950;2024-02-23T11:25:07;8.48;;;3.90;;
20629;SDS011;17386;43.846;25.950;2024-02-23T11:27:33;9.30;;;4.20;;
20629;SDS011;17386;43.846;25.950;2024-02-23T11:30:07;9.50;;;3.72;;
20629;SDS011;17386;43.846;25.950;2024-02-23T11:32:42;5.80;;;3.38;;
20629;SDS011;17386;43.846;25.950;2024-02-23T11:35:12;7.90;;;3.63;;
20629;SDS011;17386;43.846;25.950;2024-02-23T11:37:48;9.15;;;4.07;;
20629;SDS011;17386;43.846;25.950;2024-02-23T11:40:23;10.05;;;3.70;;
20629;SDS011;17386;43.846;25.950;2024-02-23T11:42:50;5.43;;;3.58;;
20629;SDS011;17386;43.846;25.950;2024-02-23T11:45:16;6.40;;;3.28;;
20629;SDS011;17386;43.846;25.950;2024-02-23T11:47:42;8.25;;;3.58;;
20629;SDS011;17386;43.846;25.950;2024-02-23T11:50:10;5.57;;;3.30;;
20629;SDS011;17386;43.846;25.950;2024-02-23T11:52:39;6.18;;;3.13;;
20629;SDS011;17386;43.846;25.950;2024-02-23T11:55:05;5.30;;;3.30;;
20629;SDS011;17386;43.846;25.950;2024-02-23T11:57:32;7.28;;;4.13;;
20629;SDS011;17386;43.846;25.950;2024-02-23T11:59:58;6.72;;;3.58;;
20629;SDS011;17386;43.846;25.950;2024-02-23T12:02:26;11.82;;;3.63;;
20629;SDS011;17386;43.846;25.950;2024-02-23T12:04:51;7.68;;;3.28;;
20629;SDS011;17386;43.846;25.950;2024-02-23T12:07:17;8.07;;;3.80;;
20629;SDS011;17386;43.846;25.950;2024-02-23T12:09:43;8.15;;;3.58;;
20629;SDS011;17386;43.846;25.950;2024-02-23T12:12:09;7.50;;;3.53;;
20629;SDS011;17386;43.846;25.950;2024-02-23T12:14:35;6.55;;;3.50;;
20629;SDS011;17386;43.846;25.950;2024-02-23T12:17:02;6.90;;;3.78;;
20629;SDS011;17386;43.846;25.950;2024-02-23T12:19:32;10.18;;;5.10;;
20629;SDS011;17386;43.846;25.950;2024-02-23T12:22:00;8.50;;;3.40;;
20629;SDS011;17386;43.846;25.950;2024-02-23T12:24:26;6.30;;;3.33;;
20629;SDS011;17386;43.846;25.950;2024-02-23T12:26:55;5.90;;;3.25;;
20629;SDS011;17386;43.846;25.950;2024-02-23T12:29:21;9.80;;;3.65;;
20629;SDS011;17386;43.846;25.950;2024-02-23T12:31:47;7.35;;;3.45;;
20629;SDS011;17386;43.846;25.950;2024-02-23T12:34:13;5.70;;;3.15;;
20629;SDS011;17386;43.846;25.950;2024-02-23T12:36:39;5.47;;;3.10;;
20629;SDS011;17386;43.846;25.950;2024-02-23T12:39:04;7.15;;;3.42;;
20629;SDS011;17386;43.846;25.950;2024-02-23T12:41:30;5.97;;;3.10;;
20629;SDS011;17386;43.846;25.950;2024-02-23T12:43:56;10.35;;;3.50;;
20629;SDS011;17386;43.846;25.950;2024-02-23T12:46:21;7.30;;;3.33;;
20629;SDS011;17386;43.846;25.950;2024-02-23T12:48:48;7.65;;;3.38;;
20629;SDS011;17386;43.846;25.950;2024-02-23T12:51:14;4.70;;;2.88;;
20629;SDS011;17386;43.846;25.950;2024-02-23T12:53:40;4.90;;;2.90;;
20629;SDS011;17386;43.846;25.950;2024-02-23T12:56:07;4.43;;;3.10;;
20629;SDS011;17386;43.846;25.950;2024-02-23T12:58:34;7.40;;;3.58;;
20629;SDS011;17386;43.846;25.950;2024-02-23T13:01:00;5.57;;;2.90;;
20629;SDS011;17386;43.846;25.950;2024-02-23T13:03:26;7.32;;;3.00;;
20629;SDS011;17386;43.846;25.950;2024-02-23T13:05:52;7.10;;;3.80;;
20629;SDS011;17386;43.846;25.950;2024-02-23T13:08:18;5.18;;;2.60;;
20629;SDS011;17386;43.846;25.950;2024-02-23T13:10:44;9.52;;;3.53;;
20629;SDS011;17386;43.846;25.950;2024-02-23T13:13:09;5.93;;;3.15;;
20629;SDS011;17386;43.846;25.950;2024-02-23T13:15:35;5.13;;;3.03;;
20629;SDS011;17386;43.846;25.950;2024-02-23T13:18:02;7.50;;;3.38;;
20629;SDS011;17386;43.846;25.950;2024-02-23T13:20:29;6.00;;;2.65;;
20629;SDS011;17386;43.846;25.950;2024-02-23T13:22:54;6.07;;;2.63;;
20629;SDS011;17386;43.846;25.950;2024-02-23T13:25:19;5.97;;;3.20;;
20629;SDS011;17386;43.846;25.950;2024-02-23T13:27:45;4.38;;;2.83;;
20629;SDS011;17386;43.846;25.950;2024-02-23T13:30:10;5.15;;;2.92;;
20629;SDS011;17386;43.846;25.950;2024-02-23T13:32:37;6.18;;;2.90;;
20629;SDS011;17386;43.846;25.950;2024-02-23T13:35:02;4.72;;;2.90;;
20629;SDS011;17386;43.846;25.950;2024-02-23T13:37:29;6.70;;;3.00;;
20629;SDS011;17386;43.846;25.950;2024-02-23T13:39:55;4.30;;;2.85;;
20629;SDS011;17386;43.846;25.950;2024-02-23T13:42:20;4.82;;;2.72;;
20629;SDS011;17386;43.846;25.950;2024-02-23T13:44:46;6.82;;;2.90;;
20629;SDS011;17386;43.846;25.950;2024-02-23T13:47:12;4.60;;;2.90;;
20629;SDS011;17386;43.846;25.950;2024-02-23T13:49:37;4.75;;;2.83;;
20629;SDS011;17386;43.846;25.950;2024-02-23T13:52:02;4.82;;;2.83;;
20629;SDS011;17386;43.846;25.950;2024-02-23T13:54:28;5.25;;;2.75;;
20629;SDS011;17386;43.846;25.950;2024-02-23T13:56:54;7.38;;;3.08;;
20629;SDS011;17386;43.846;25.950;2024-02-23T13:59:19;9.35;;;2.90;;
20629;SDS011;17386;43.846;25.950;2024-02-23T14:01:44;6.15;;;3.47;;
20629;SDS011;17386;43.846;25.950;2024-02-23T14:04:10;5.13;;;2.85;;
20629;SDS011;17386;43.846;25.950;2024-02-23T14:06:36;6.40;;;2.90;;
20629;SDS011;17386;43.846;25.950;2024-02-23T14:09:01;6.97;;;2.83;;
20629;SDS011;17386;43.846;25.950;2024-02-23T14:11:28;9.23;;;3.13;;
20629;SDS011;17386;43.846;25.950;2024-02-23T14:13:54;14.80;;;7.40;;
20629;SDS011;17386;43.846;25.950;2024-02-23T14:16:20;5.60;;;2.58;;
20629;SDS011;17386;43.846;25.950;2024-02-23T14:18:46;6.10;;;2.75;;